sensor_id;sensor_type;location;lat;lon;timestamp;temperature;humidity
26952;DHT22;14507;52.418;13.398;2022-07-06T00:01:41;19.00;74.80
26952;DHT22;14507;52.418;13.398;2022-07-06T00:04:07;18.90;75.00
26952;DHT22;14507;52.418;13.398;2022-07-06T00:06:33;18.90;74.90
26952;DHT22;14507;52.418;13.398;2022-07-06T00:08:58;18.90;75.00
26952;DHT22;14507;52.418;13.398;2022-07-06T00:11:24;18.90;75.10
26952;DHT22;14507;52.418;13.398;2022-07-06T00:13:50;18.90;75.20
26952;DHT22;14507;52.418;13.398;2022-07-06T00:18:42;18.90;74.90
26952;DHT22;14507;52.418;13.398;2022-07-06T00:21:08;18.90;75.50
26952;DHT22;14507;52.418;13.398;2022-07-06T00:23:34;18.90;75.50
26952;DHT22;14507;52.418;13.398;2022-07-06T00:25:59;18.90;75.60
26952;DHT22;14507;52.418;13.398;2022-07-06T00:28:26;18.90;75.80
26952;DHT22;14507;52.418;13.398;2022-07-06T00:30:52;18.90;76.10
26952;DHT22;14507;52.418;13.398;2022-07-06T00:33:18;18.90;76.10
26952;DHT22;14507;52.418;13.398;2022-07-06T00:38:09;18.90;75.80
26952;DHT22;14507;52.418;13.398;2022-07-06T00:40:35;18.50;79.90
26952;DHT22;14507;52.418;13.398;2022-07-06T00:43:01;18.80;76.40
26952;DHT22;14507;52.418;13.398;2022-07-06T00:45:26;18.80;76.90
26952;DHT22;14507;52.418;13.398;2022-07-06T00:47:52;18.80;77.10
26952;DHT22;14507;52.418;13.398;2022-07-06T00:50:18;18.70;77.80
26952;DHT22;14507;52.418;13.398;2022-07-06T00:52:48;18.80;77.30
26952;DHT22;14507;52.418;13.398;2022-07-06T00:55:16;18.80;77.70
26952;DHT22;14507;52.418;13.398;2022-07-06T00:57:42;18.70;77.80
26952;DHT22;14507;52.418;13.398;2022-07-06T01:00:10;18.70;78.00
26952;DHT22;14507;52.418;13.398;2022-07-06T01:05:06;18.70;77.80
26952;DHT22;14507;52.418;13.398;2022-07-06T01:07:33;18.60;78.40
26952;DHT22;14507;52.418;13.398;2022-07-06T01:09:59;18.60;78.80
26952;DHT22;14507;52.418;13.398;2022-07-06T01:12:25;18.50;78.80
26952;DHT22;14507;52.418;13.398;2022-07-06T01:14:51;18.50;78.80
26952;DHT22;14507;52.418;13.398;2022-07-06T01:17:17;18.50;78.70
26952;DHT22;14507;52.418;13.398;2022-07-06T01:19:43;18.30;90.80
26952;DHT22;14507;52.418;13.398;2022-07-06T01:22:09;18.50;90.70
26952;DHT22;14507;52.418;13.398;2022-07-06T01:24:36;18.40;79.80
26952;DHT22;14507;52.418;13.398;2022-07-06T01:27:03;18.40;80.30
26952;DHT22;14507;52.418;13.398;2022-07-06T01:29:29;18.30;80.50
26952;DHT22;14507;52.418;13.398;2022-07-06T01:31:55;18.30;80.70
26952;DHT22;14507;52.418;13.398;2022-07-06T01:36:47;18.30;80.50
26952;DHT22;14507;52.418;13.398;2022-07-06T01:39:13;18.50;81.20
26952;DHT22;14507;52.418;13.398;2022-07-06T01:41:38;18.20;81.80
26952;DHT22;14507;52.418;13.398;2022-07-06T01:44:05;18.20;81.70
26952;DHT22;14507;52.418;13.398;2022-07-06T01:46:31;18.10;81.90
26952;DHT22;14507;52.418;13.398;2022-07-06T01:48:57;18.10;81.60
26952;DHT22;14507;52.418;13.398;2022-07-06T01:51:23;18.10;81.80
26952;DHT22;14507;52.418;13.398;2022-07-06T01:53:50;18.10;82.00
26952;DHT22;14507;52.418;13.398;2022-07-06T01:56:16;18.10;81.20
26952;DHT22;14507;52.418;13.398;2022-07-06T01:58:48;18.10;81.70
26952;DHT22;14507;52.418;13.398;2022-07-06T02:01:16;18.10;81.90
26952;DHT22;14507;52.418;13.398;2022-07-06T02:03:42;18.00;82.10
26952;DHT22;14507;52.418;13.398;2022-07-06T02:06:09;18.00;82.20
26952;DHT22;14507;52.418;13.398;2022-07-06T02:08:35;18.00;82.50
26952;DHT22;14507;52.418;13.398;2022-07-06T02:11:08;18.00;82.30
26952;DHT22;14507;52.418;13.398;2022-07-06T02:13:34;18.10;82.10
26952;DHT22;14507;52.418;13.398;2022-07-06T02:16:00;18.00;81.60
26952;DHT22;14507;52.418;13.398;2022-07-06T02:18:26;18.10;81.10
26952;DHT22;14507;52.418;13.398;2022-07-06T02:20:51;18.10;80.90
26952;DHT22;14507;52.418;13.398;2022-07-06T02:23:17;18.10;80.40
26952;DHT22;14507;52.418;13.398;2022-07-06T02:25:43;18.20;81.50
26952;DHT22;14507;52.418;13.398;2022-07-06T02:28:08;18.20;82.70
26952;DHT22;14507;52.418;13.398;2022-07-06T02:30:34;18.90;92.60
26952;DHT22;14507;52.418;13.398;2022-07-06T02:35:26;18.10;84.60
26952;DHT22;14507;52.418;13.398;2022-07-06T02:40:17;18.00;86.50
26952;DHT22;14507;52.418;13.398;2022-07-06T02:42:43;18.00;86.90
26952;DHT22;14507;52.418;13.398;2022-07-06T02:45:09;18.00;88.40
26952;DHT22;14507;52.418;13.398;2022-07-06T02:47:35;17.90;88.80
26952;DHT22;14507;52.418;13.398;2022-07-06T02:50:01;17.90;88.80
26952;DHT22;14507;52.418;13.398;2022-07-06T02:52:26;17.90;88.70
26952;DHT22;14507;52.418;13.398;2022-07-06T02:57:18;17.80;89.40
26952;DHT22;14507;52.418;13.398;2022-07-06T02:59:44;17.80;89.80
26952;DHT22;14507;52.418;13.398;2022-07-06T03:02:11;17.80;90.00
26952;DHT22;14507;52.418;13.398;2022-07-06T03:04:37;17.80;90.10
26952;DHT22;14507;52.418;13.398;2022-07-06T03:07:03;17.80;89.80
26952;DHT22;14507;52.418;13.398;2022-07-06T03:11:54;17.70;90.00
26952;DHT22;14507;52.418;13.398;2022-07-06T03:14:20;17.70;90.80
26952;DHT22;14507;52.418;13.398;2022-07-06T03:16:45;17.70;90.70
26952;DHT22;14507;52.418;13.398;2022-07-06T03:19:11;17.70;90.60
26952;DHT22;14507;52.418;13.398;2022-07-06T03:21:37;17.70;91.10
26952;DHT22;14507;52.418;13.398;2022-07-06T03:24:03;17.70;91.90
26952;DHT22;14507;52.418;13.398;2022-07-06T03:26:29;17.70;93.50
26952;DHT22;14507;52.418;13.398;2022-07-06T03:28:54;17.70;95.00
26952;DHT22;14507;52.418;13.398;2022-07-06T03:31:20;17.60;97.60
26952;DHT22;14507;52.418;13.398;2022-07-06T03:33:46;18.20;98.70
26952;DHT22;14507;52.418;13.398;2022-07-06T03:36:11;17.50;99.20
26952;DHT22;14507;52.418;13.398;2022-07-06T03:38:37;17.40;98.30
26952;DHT22;14507;52.418;13.398;2022-07-06T03:41:03;17.50;99.10
26952;DHT22;14507;52.418;13.398;2022-07-06T03:43:29;17.40;99.70
26952;DHT22;14507;52.418;13.398;2022-07-06T03:45:55;17.30;99.90
26952;DHT22;14507;52.418;13.398;2022-07-06T03:48:21;17.30;98.30
26952;DHT22;14507;52.418;13.398;2022-07-06T03:50:46;17.30;99.10
26952;DHT22;14507;52.418;13.398;2022-07-06T03:55:38;17.20;98.60
26952;DHT22;14507;52.418;13.398;2022-07-06T03:58:03;17.20;99.10
26952;DHT22;14507;52.418;13.398;2022-07-06T04:02:55;17.10;99.30
26952;DHT22;14507;52.418;13.398;2022-07-06T04:05:21;17.10;99.90
26952;DHT22;14507;52.418;13.398;2022-07-06T04:07:47;17.10;99.90
26952;DHT22;14507;52.418;13.398;2022-07-06T04:10:14;17.20;99.90
26952;DHT22;14507;52.418;13.398;2022-07-06T04:12:41;17.10;99.90
26952;DHT22;14507;52.418;13.398;2022-07-06T04:15:07;17.40;99.90
26952;DHT22;14507;52.418;13.398;2022-07-06T04:17:33;17.20;99.90
26952;DHT22;14507;52.418;13.398;2022-07-06T04:20:17;17.30;99.90
26952;DHT22;14507;52.418;13.398;2022-07-06T04:22:42;17.30;99.90
26952;DHT22;14507;52.418;13.398;2022-07-06T04:25:08;17.40;99.90
26952;DHT22;14507;52.418;13.398;2022-07-06T04:27:34;17.80;99.70
26952;DHT22;14507;52.418;13.398;2022-07-06T04:30:01;17.40;99.90
26952;DHT22;14507;52.418;13.398;2022-07-06T04:32:26;17.40;99.50
26952;DHT22;14507;52.418;13.398;2022-07-06T04:34:52;17.40;99.30
26952;DHT22;14507;52.418;13.398;2022-07-06T04:37:17;17.40;99.20
26952;DHT22;14507;52.418;13.398;2022-07-06T04:39:43;17.40;98.90
26952;DHT22;14507;52.418;13.398;2022-07-06T04:42:08;17.40;99.30
26952;DHT22;14507;52.418;13.398;2022-07-06T04:47:00;17.50;98.90
26952;DHT22;14507;52.418;13.398;2022-07-06T04:49:26;18.00;99.90
26952;DHT22;14507;52.418;13.398;2022-07-06T04:51:51;17.70;98.10
26952;DHT22;14507;52.418;13.398;2022-07-06T04:54:17;17.80;97.10
26952;DHT22;14507;52.418;13.398;2022-07-06T04:56:42;18.30;99.90
26952;DHT22;14507;52.418;13.398;2022-07-06T04:59:08;18.20;97.30
26952;DHT22;14507;52.418;13.398;2022-07-06T05:01:34;18.50;96.60
26952;DHT22;14507;52.418;13.398;2022-07-06T05:06:25;18.70;94.70
26952;DHT22;14507;52.418;13.398;2022-07-06T05:08:51;18.70;94.20
26952;DHT22;14507;52.418;13.398;2022-07-06T05:11:17;18.60;95.10
26952;DHT22;14507;52.418;13.398;2022-07-06T05:13:42;18.60;95.10
26952;DHT22;14507;52.418;13.398;2022-07-06T05:16:08;18.50;94.60
26952;DHT22;14507;52.418;13.398;2022-07-06T05:18:34;18.60;94.90
26952;DHT22;14507;52.418;13.398;2022-07-06T05:21:00;18.60;94.60
26952;DHT22;14507;52.418;13.398;2022-07-06T05:23:26;18.70;94.00
26952;DHT22;14507;52.418;13.398;2022-07-06T05:28:18;19.10;95.10
26952;DHT22;14507;52.418;13.398;2022-07-06T05:30:43;19.30;95.50
26952;DHT22;14507;52.418;13.398;2022-07-06T05:35:35;20.00;91.10
26952;DHT22;14507;52.418;13.398;2022-07-06T05:38:01;20.50;90.50
26952;DHT22;14507;52.418;13.398;2022-07-06T05:42:52;21.30;86.70
26952;DHT22;14507;52.418;13.398;2022-07-06T05:45:18;21.70;84.20
26952;DHT22;14507;52.418;13.398;2022-07-06T05:47:43;22.10;82.70
26952;DHT22;14507;52.418;13.398;2022-07-06T05:52:59;22.70;79.10
26952;DHT22;14507;52.418;13.398;2022-07-06T05:55:25;22.90;77.60
26952;DHT22;14507;52.418;13.398;2022-07-06T05:57:54;23.00;77.70
26952;DHT22;14507;52.418;13.398;2022-07-06T06:02:47;23.60;75.70
26952;DHT22;14507;52.418;13.398;2022-07-06T06:05:14;23.90;75.20
26952;DHT22;14507;52.418;13.398;2022-07-06T06:07:39;24.30;73.90
26952;DHT22;14507;52.418;13.398;2022-07-06T06:10:10;24.60;71.90
26952;DHT22;14507;52.418;13.398;2022-07-06T06:12:36;24.90;70.40
26952;DHT22;14507;52.418;13.398;2022-07-06T06:15:03;25.10;69.30
26952;DHT22;14507;52.418;13.398;2022-07-06T06:17:29;25.30;68.20
26952;DHT22;14507;52.418;13.398;2022-07-06T06:19:55;25.60;68.00
26952;DHT22;14507;52.418;13.398;2022-07-06T06:22:20;25.80;67.70
26952;DHT22;14507;52.418;13.398;2022-07-06T06:24:46;26.10;66.60
26952;DHT22;14507;52.418;13.398;2022-07-06T06:27:12;26.40;66.20
26952;DHT22;14507;52.418;13.398;2022-07-06T06:29:37;26.60;66.80
26952;DHT22;14507;52.418;13.398;2022-07-06T06:32:03;26.80;64.50
26952;DHT22;14507;52.418;13.398;2022-07-06T06:34:31;26.90;64.70
26952;DHT22;14507;52.418;13.398;2022-07-06T06:36:56;27.20;64.10
26952;DHT22;14507;52.418;13.398;2022-07-06T06:39:22;27.30;63.30
26952;DHT22;14507;52.418;13.398;2022-07-06T06:41:47;27.50;62.20
26952;DHT22;14507;52.418;13.398;2022-07-06T06:44:13;27.70;62.50
26952;DHT22;14507;52.418;13.398;2022-07-06T06:46:40;27.90;62.10
26952;DHT22;14507;52.418;13.398;2022-07-06T06:49:05;28.10;60.60
26952;DHT22;14507;52.418;13.398;2022-07-06T06:51:32;28.20;60.70
26952;DHT22;14507;52.418;13.398;2022-07-06T06:53:57;28.50;60.70
26952;DHT22;14507;52.418;13.398;2022-07-06T06:56:23;28.60;60.60
26952;DHT22;14507;52.418;13.398;2022-07-06T06:58:48;28.50;59.30
26952;DHT22;14507;52.418;13.398;2022-07-06T07:01:14;28.20;59.40
26952;DHT22;14507;52.418;13.398;2022-07-06T07:03:45;27.80;60.60
26952;DHT22;14507;52.418;13.398;2022-07-06T07:08:37;26.70;62.10
26952;DHT22;14507;52.418;13.398;2022-07-06T07:11:03;26.70;62.70
26952;DHT22;14507;52.418;13.398;2022-07-06T07:13:28;26.90;62.30
26952;DHT22;14507;52.418;13.398;2022-07-06T07:15:54;27.30;60.40
26952;DHT22;14507;52.418;13.398;2022-07-06T07:18:19;27.60;61.40
26952;DHT22;14507;52.418;13.398;2022-07-06T07:20:45;28.10;60.00
26952;DHT22;14507;52.418;13.398;2022-07-06T07:23:11;28.70;58.70
26952;DHT22;14507;52.418;13.398;2022-07-06T07:25:36;29.40;57.20
26952;DHT22;14507;52.418;13.398;2022-07-06T07:28:04;29.40;57.90
26952;DHT22;14507;52.418;13.398;2022-07-06T07:30:29;29.30;57.30
26952;DHT22;14507;52.418;13.398;2022-07-06T07:32:55;28.70;57.90
26952;DHT22;14507;52.418;13.398;2022-07-06T07:35:21;28.10;58.90
26952;DHT22;14507;52.418;13.398;2022-07-06T07:37:47;27.60;59.20
26952;DHT22;14507;52.418;13.398;2022-07-06T07:40:13;27.50;60.80
26952;DHT22;14507;52.418;13.398;2022-07-06T07:42:38;27.30;60.30
26952;DHT22;14507;52.418;13.398;2022-07-06T07:45:07;26.80;59.90
26952;DHT22;14507;52.418;13.398;2022-07-06T07:47:32;26.50;60.40
26952;DHT22;14507;52.418;13.398;2022-07-06T07:49:58;26.30;58.60
26952;DHT22;14507;52.418;13.398;2022-07-06T07:52:26;26.30;59.30
26952;DHT22;14507;52.418;13.398;2022-07-06T07:54:51;26.90;59.20
26952;DHT22;14507;52.418;13.398;2022-07-06T07:57:17;27.70;57.60
26952;DHT22;14507;52.418;13.398;2022-07-06T07:59:43;28.50;55.50
26952;DHT22;14507;52.418;13.398;2022-07-06T08:02:09;28.90;54.10
26952;DHT22;14507;52.418;13.398;2022-07-06T08:04:34;29.50;53.30
26952;DHT22;14507;52.418;13.398;2022-07-06T08:07:00;29.90;53.00
26952;DHT22;14507;52.418;13.398;2022-07-06T08:09:26;30.00;52.10
26952;DHT22;14507;52.418;13.398;2022-07-06T08:11:51;29.90;52.80
26952;DHT22;14507;52.418;13.398;2022-07-06T08:14:17;29.50;52.30
26952;DHT22;14507;52.418;13.398;2022-07-06T08:16:43;29.40;52.80
26952;DHT22;14507;52.418;13.398;2022-07-06T08:19:08;29.10;53.50
26952;DHT22;14507;52.418;13.398;2022-07-06T08:21:35;28.60;53.90
26952;DHT22;14507;52.418;13.398;2022-07-06T08:24:01;28.30;55.20
26952;DHT22;14507;52.418;13.398;2022-07-06T08:26:27;28.00;55.60
26952;DHT22;14507;52.418;13.398;2022-07-06T08:28:53;27.50;55.90
26952;DHT22;14507;52.418;13.398;2022-07-06T08:31:18;27.10;56.60
26952;DHT22;14507;52.418;13.398;2022-07-06T08:33:44;26.70;57.80
26952;DHT22;14507;52.418;13.398;2022-07-06T08:36:10;26.50;57.20
26952;DHT22;14507;52.418;13.398;2022-07-06T08:38:35;26.40;58.20
26952;DHT22;14507;52.418;13.398;2022-07-06T08:41:02;26.30;58.50
26952;DHT22;14507;52.418;13.398;2022-07-06T08:43:27;26.30;59.70
26952;DHT22;14507;52.418;13.398;2022-07-06T08:45:53;26.20;58.30
26952;DHT22;14507;52.418;13.398;2022-07-06T08:48:23;25.90;58.70
26952;DHT22;14507;52.418;13.398;2022-07-06T08:50:48;25.60;58.40
26952;DHT22;14507;52.418;13.398;2022-07-06T08:53:16;25.30;59.70
26952;DHT22;14507;52.418;13.398;2022-07-06T08:55:42;25.10;59.50
26952;DHT22;14507;52.418;13.398;2022-07-06T08:58:09;25.40;59.90
26952;DHT22;14507;52.418;13.398;2022-07-06T09:00:35;25.50;57.80
26952;DHT22;14507;52.418;13.398;2022-07-06T09:03:02;25.40;58.60
26952;DHT22;14507;52.418;13.398;2022-07-06T09:05:28;25.20;58.70
26952;DHT22;14507;52.418;13.398;2022-07-06T09:07:55;25.10;59.00
26952;DHT22;14507;52.418;13.398;2022-07-06T09:10:21;24.80;60.20
26952;DHT22;14507;52.418;13.398;2022-07-06T09:12:48;24.50;59.30
26952;DHT22;14507;52.418;13.398;2022-07-06T09:15:14;24.20;58.40
26952;DHT22;14507;52.418;13.398;2022-07-06T09:17:42;23.90;59.10
26952;DHT22;14507;52.418;13.398;2022-07-06T09:20:09;23.60;60.40
26952;DHT22;14507;52.418;13.398;2022-07-06T09:22:36;23.50;60.10
26952;DHT22;14507;52.418;13.398;2022-07-06T09:27:37;23.10;61.30
26952;DHT22;14507;52.418;13.398;2022-07-06T09:30:03;23.00;61.30
26952;DHT22;14507;52.418;13.398;2022-07-06T09:32:30;22.90;62.40
26952;DHT22;14507;52.418;13.398;2022-07-06T09:34:56;22.80;60.70
26952;DHT22;14507;52.418;13.398;2022-07-06T09:37:22;22.60;60.20
26952;DHT22;14507;52.418;13.398;2022-07-06T09:39:49;22.40;59.50
26952;DHT22;14507;52.418;13.398;2022-07-06T09:42:15;22.40;60.60
26952;DHT22;14507;52.418;13.398;2022-07-06T09:44:41;22.40;58.50
26952;DHT22;14507;52.418;13.398;2022-07-06T09:47:09;22.30;59.20
26952;DHT22;14507;52.418;13.398;2022-07-06T09:49:35;22.20;59.20
26952;DHT22;14507;52.418;13.398;2022-07-06T09:52:03;22.20;59.30
26952;DHT22;14507;52.418;13.398;2022-07-06T09:54:29;22.20;59.90
26952;DHT22;14507;52.418;13.398;2022-07-06T09:56:56;22.20;58.80
26952;DHT22;14507;52.418;13.398;2022-07-06T09:59:27;22.40;59.10
26952;DHT22;14507;52.418;13.398;2022-07-06T10:02:10;22.90;63.30
26952;DHT22;14507;52.418;13.398;2022-07-06T10:04:39;23.20;58.50
26952;DHT22;14507;52.418;13.398;2022-07-06T10:07:06;23.40;57.90
26952;DHT22;14507;52.418;13.398;2022-07-06T10:09:32;23.50;59.80
26952;DHT22;14507;52.418;13.398;2022-07-06T10:12:00;23.50;61.30
26952;DHT22;14507;52.418;13.398;2022-07-06T10:14:31;23.30;60.80
26952;DHT22;14507;52.418;13.398;2022-07-06T10:16:57;23.00;60.80
26952;DHT22;14507;52.418;13.398;2022-07-06T10:19:25;22.90;59.70
26952;DHT22;14507;52.418;13.398;2022-07-06T10:21:51;22.60;65.30
26952;DHT22;14507;52.418;13.398;2022-07-06T10:24:18;22.60;59.50
26952;DHT22;14507;52.418;13.398;2022-07-06T10:26:46;22.50;60.20
26952;DHT22;14507;52.418;13.398;2022-07-06T10:29:11;22.50;59.80
26952;DHT22;14507;52.418;13.398;2022-07-06T10:31:40;22.50;59.60
26952;DHT22;14507;52.418;13.398;2022-07-06T10:34:11;22.50;60.30
26952;DHT22;14507;52.418;13.398;2022-07-06T10:36:41;22.60;58.80
26952;DHT22;14507;52.418;13.398;2022-07-06T10:39:08;22.50;59.70
26952;DHT22;14507;52.418;13.398;2022-07-06T10:41:53;22.40;65.40
26952;DHT22;14507;52.418;13.398;2022-07-06T10:44:25;22.40;60.30
26952;DHT22;14507;52.418;13.398;2022-07-06T10:46:55;22.50;61.00
26952;DHT22;14507;52.418;13.398;2022-07-06T10:49:22;22.60;60.20
26952;DHT22;14507;52.418;13.398;2022-07-06T10:51:48;23.20;64.00
26952;DHT22;14507;52.418;13.398;2022-07-06T10:54:15;23.20;58.60
26952;DHT22;14507;52.418;13.398;2022-07-06T10:56:44;23.40;57.50
26952;DHT22;14507;52.418;13.398;2022-07-06T10:59:20;23.50;58.10
26952;DHT22;14507;52.418;13.398;2022-07-06T11:04:38;23.70;60.40
26952;DHT22;14507;52.418;13.398;2022-07-06T11:07:12;23.90;57.80
26952;DHT22;14507;52.418;13.398;2022-07-06T11:09:37;24.00;58.10
26952;DHT22;14507;52.418;13.398;2022-07-06T11:12:20;24.10;57.80
26952;DHT22;14507;52.418;13.398;2022-07-06T11:14:47;24.30;59.10
26952;DHT22;14507;52.418;13.398;2022-07-06T11:17:13;24.40;57.40
26952;DHT22;14507;52.418;13.398;2022-07-06T11:19:49;24.60;58.50
26952;DHT22;14507;52.418;13.398;2022-07-06T11:22:15;24.50;56.10
26952;DHT22;14507;52.418;13.398;2022-07-06T11:24:42;24.40;56.90
26952;DHT22;14507;52.418;13.398;2022-07-06T11:27:08;24.20;57.40
26952;DHT22;14507;52.418;13.398;2022-07-06T11:29:35;24.10;58.00
26952;DHT22;14507;52.418;13.398;2022-07-06T11:32:05;23.90;58.90
26952;DHT22;14507;52.418;13.398;2022-07-06T11:34:33;23.80;59.60
26952;DHT22;14507;52.418;13.398;2022-07-06T11:37:07;23.60;59.30
26952;DHT22;14507;52.418;13.398;2022-07-06T11:39:34;23.40;59.80
26952;DHT22;14507;52.418;13.398;2022-07-06T11:42:01;23.30;60.90
26952;DHT22;14507;52.418;13.398;2022-07-06T11:44:27;23.40;59.70
26952;DHT22;14507;52.418;13.398;2022-07-06T11:46:53;23.40;59.40
26952;DHT22;14507;52.418;13.398;2022-07-06T11:49:22;23.40;60.30
26952;DHT22;14507;52.418;13.398;2022-07-06T11:51:47;23.80;64.10
26952;DHT22;14507;52.418;13.398;2022-07-06T11:54:19;23.80;59.50
26952;DHT22;14507;52.418;13.398;2022-07-06T11:56:50;23.90;60.00
26952;DHT22;14507;52.418;13.398;2022-07-06T11:59:24;24.10;59.00
26952;DHT22;14507;52.418;13.398;2022-07-06T12:01:57;24.20;63.80
26952;DHT22;14507;52.418;13.398;2022-07-06T12:04:24;24.00;59.60
26952;DHT22;14507;52.418;13.398;2022-07-06T12:06:50;24.10;58.50
26952;DHT22;14507;52.418;13.398;2022-07-06T12:09:16;24.20;57.90
26952;DHT22;14507;52.418;13.398;2022-07-06T12:11:44;24.30;57.00
26952;DHT22;14507;52.418;13.398;2022-07-06T12:14:15;24.40;56.40
26952;DHT22;14507;52.418;13.398;2022-07-06T12:16:41;24.40;56.90
26952;DHT22;14507;52.418;13.398;2022-07-06T12:19:07;24.50;57.60
26952;DHT22;14507;52.418;13.398;2022-07-06T12:21:34;24.50;57.90
26952;DHT22;14507;52.418;13.398;2022-07-06T12:24:00;24.60;57.60
26952;DHT22;14507;52.418;13.398;2022-07-06T12:26:27;24.50;57.80
26952;DHT22;14507;52.418;13.398;2022-07-06T12:29:09;24.50;58.60
26952;DHT22;14507;52.418;13.398;2022-07-06T12:31:55;24.30;58.90
26952;DHT22;14507;52.418;13.398;2022-07-06T12:34:25;24.30;58.90
26952;DHT22;14507;52.418;13.398;2022-07-06T12:36:56;24.30;59.20
26952;DHT22;14507;52.418;13.398;2022-07-06T12:39:31;24.30;59.00
26952;DHT22;14507;52.418;13.398;2022-07-06T12:42:03;24.20;64.60
26952;DHT22;14507;52.418;13.398;2022-07-06T12:44:30;24.40;59.40
26952;DHT22;14507;52.418;13.398;2022-07-06T12:47:07;24.50;59.00
26952;DHT22;14507;52.418;13.398;2022-07-06T12:49:34;24.60;58.80
26952;DHT22;14507;52.418;13.398;2022-07-06T12:54:40;24.70;60.50
26952;DHT22;14507;52.418;13.398;2022-07-06T13:00:02;24.70;60.70
26952;DHT22;14507;52.418;13.398;2022-07-06T13:02:32;24.60;59.30
26952;DHT22;14507;52.418;13.398;2022-07-06T13:05:04;24.60;59.10
26952;DHT22;14507;52.418;13.398;2022-07-06T13:07:31;24.50;59.90
26952;DHT22;14507;52.418;13.398;2022-07-06T13:09:57;24.40;60.10
26952;DHT22;14507;52.418;13.398;2022-07-06T13:12:24;24.30;59.20
26952;DHT22;14507;52.418;13.398;2022-07-06T13:14:50;24.20;59.40
26952;DHT22;14507;52.418;13.398;2022-07-06T13:17:16;24.20;59.40
26952;DHT22;14507;52.418;13.398;2022-07-06T13:19:42;24.20;59.80
26952;DHT22;14507;52.418;13.398;2022-07-06T13:22:08;24.30;59.00
26952;DHT22;14507;52.418;13.398;2022-07-06T13:24:34;24.30;58.30
26952;DHT22;14507;52.418;13.398;2022-07-06T13:27:00;24.30;59.50
26952;DHT22;14507;52.418;13.398;2022-07-06T13:29:26;24.30;60.20
26952;DHT22;14507;52.418;13.398;2022-07-06T13:31:52;24.20;63.10
26952;DHT22;14507;52.418;13.398;2022-07-06T13:34:17;24.20;58.70
26952;DHT22;14507;52.418;13.398;2022-07-06T13:36:43;24.20;60.40
26952;DHT22;14507;52.418;13.398;2022-07-06T13:39:10;24.10;59.40
26952;DHT22;14507;52.418;13.398;2022-07-06T13:41:36;24.10;59.00
26952;DHT22;14507;52.418;13.398;2022-07-06T13:44:02;23.90;58.80
26952;DHT22;14507;52.418;13.398;2022-07-06T13:46:29;23.90;59.30
26952;DHT22;14507;52.418;13.398;2022-07-06T13:48:55;23.90;59.00
26952;DHT22;14507;52.418;13.398;2022-07-06T13:51:22;23.90;59.90
26952;DHT22;14507;52.418;13.398;2022-07-06T13:53:47;23.80;59.60
26952;DHT22;14507;52.418;13.398;2022-07-06T13:56:13;23.70;59.10
26952;DHT22;14507;52.418;13.398;2022-07-06T13:58:39;23.60;60.70
26952;DHT22;14507;52.418;13.398;2022-07-06T14:01:04;23.50;59.70
26952;DHT22;14507;52.418;13.398;2022-07-06T14:03:30;23.50;60.50
26952;DHT22;14507;52.418;13.398;2022-07-06T14:05:58;23.40;60.40
26952;DHT22;14507;52.418;13.398;2022-07-06T14:08:24;23.30;63.10
26952;DHT22;14507;52.418;13.398;2022-07-06T14:10:50;23.20;61.20
26952;DHT22;14507;52.418;13.398;2022-07-06T14:13:15;23.20;60.20
26952;DHT22;14507;52.418;13.398;2022-07-06T14:15:41;23.20;61.00
26952;DHT22;14507;52.418;13.398;2022-07-06T14:18:06;23.30;60.10
26952;DHT22;14507;52.418;13.398;2022-07-06T14:20:32;23.30;60.10
26952;DHT22;14507;52.418;13.398;2022-07-06T14:22:57;23.30;60.30
26952;DHT22;14507;52.418;13.398;2022-07-06T14:25:23;23.20;61.30
26952;DHT22;14507;52.418;13.398;2022-07-06T14:27:49;23.10;61.50
26952;DHT22;14507;52.418;13.398;2022-07-06T14:30:14;23.10;59.80
26952;DHT22;14507;52.418;13.398;2022-07-06T14:32:40;23.10;60.50
26952;DHT22;14507;52.418;13.398;2022-07-06T14:35:05;23.10;59.70
26952;DHT22;14507;52.418;13.398;2022-07-06T14:37:31;23.10;59.90
26952;DHT22;14507;52.418;13.398;2022-07-06T14:39:57;23.10;60.90
26952;DHT22;14507;52.418;13.398;2022-07-06T14:42:22;23.20;59.90
26952;DHT22;14507;52.418;13.398;2022-07-06T14:44:48;23.00;60.70
26952;DHT22;14507;52.418;13.398;2022-07-06T14:47:14;22.90;60.00
26952;DHT22;14507;52.418;13.398;2022-07-06T14:49:40;22.90;62.10
26952;DHT22;14507;52.418;13.398;2022-07-06T14:52:06;22.80;61.50
26952;DHT22;14507;52.418;13.398;2022-07-06T14:54:31;22.80;61.10
26952;DHT22;14507;52.418;13.398;2022-07-06T14:56:57;22.80;61.30
26952;DHT22;14507;52.418;13.398;2022-07-06T14:59:23;22.60;61.50
26952;DHT22;14507;52.418;13.398;2022-07-06T15:01:48;22.40;64.20
26952;DHT22;14507;52.418;13.398;2022-07-06T15:04:14;22.50;62.30
26952;DHT22;14507;52.418;13.398;2022-07-06T15:06:39;22.30;62.20
26952;DHT22;14507;52.418;13.398;2022-07-06T15:09:05;22.20;62.50
26952;DHT22;14507;52.418;13.398;2022-07-06T15:11:31;22.20;64.20
26952;DHT22;14507;52.418;13.398;2022-07-06T15:13:56;22.00;63.40
26952;DHT22;14507;52.418;13.398;2022-07-06T15:16:22;21.90;62.90
26952;DHT22;14507;52.418;13.398;2022-07-06T15:18:49;21.80;64.20
26952;DHT22;14507;52.418;13.398;2022-07-06T15:21:15;21.70;64.40
26952;DHT22;14507;52.418;13.398;2022-07-06T15:23:40;21.70;64.90
26952;DHT22;14507;52.418;13.398;2022-07-06T15:26:07;21.70;64.50
26952;DHT22;14507;52.418;13.398;2022-07-06T15:28:32;21.60;64.90
26952;DHT22;14507;52.418;13.398;2022-07-06T15:30:58;21.70;64.80
26952;DHT22;14507;52.418;13.398;2022-07-06T15:33:24;21.70;64.80
26952;DHT22;14507;52.418;13.398;2022-07-06T15:35:49;21.70;65.50
26952;DHT22;14507;52.418;13.398;2022-07-06T15:38:15;21.80;64.20
26952;DHT22;14507;52.418;13.398;2022-07-06T15:40:41;21.70;66.00
26952;DHT22;14507;52.418;13.398;2022-07-06T15:43:10;21.80;64.80
26952;DHT22;14507;52.418;13.398;2022-07-06T15:45:36;21.80;64.60
26952;DHT22;14507;52.418;13.398;2022-07-06T15:48:03;21.80;65.30
26952;DHT22;14507;52.418;13.398;2022-07-06T15:50:29;21.90;65.40
26952;DHT22;14507;52.418;13.398;2022-07-06T15:52:54;22.00;66.00
26952;DHT22;14507;52.418;13.398;2022-07-06T15:55:20;22.10;65.70
26952;DHT22;14507;52.418;13.398;2022-07-06T15:57:47;22.20;63.80
26952;DHT22;14507;52.418;13.398;2022-07-06T16:00:13;22.30;64.40
26952;DHT22;14507;52.418;13.398;2022-07-06T16:02:39;22.30;64.40
26952;DHT22;14507;52.418;13.398;2022-07-06T16:05:05;22.40;64.40
26952;DHT22;14507;52.418;13.398;2022-07-06T16:07:31;22.40;63.30